createdAt,value
2022-10-01T00:00:16.425Z,100.00
2022-10-01T00:02:44.777Z,100.00
2022-10-01T00:05:13.266Z,100.00
2022-10-01T00:07:43.166Z,100.00
2022-10-01T00:10:12.486Z,100.00
2022-10-01T00:12:44.537Z,100.00
2022-10-01T00:15:13.712Z,100.00
2022-10-01T00:17:43.996Z,100.00
2022-10-01T00:20:14.654Z,100.00
2022-10-01T00:22:43.198Z,100.00
2022-10-01T00:25:11.841Z,100.00
2022-10-01T00:27:40.831Z,100.00
2022-10-01T00:30:10.264Z,100.00
2022-10-01T00:32:41.227Z,100.00
2022-10-01T00:35:11.637Z,100.00
2022-10-01T00:37:40.091Z,100.00
2022-10-01T00:40:09.688Z,100.00
2022-10-01T00:42:38.121Z,100.00
2022-10-01T00:45:07.241Z,100.00
2022-10-01T00:47:38.014Z,100.00
2022-10-01T00:50:11.793Z,100.00
2022-10-01T00:52:42.174Z,100.00
2022-10-01T00:55:14.120Z,100.00
2022-10-01T00:57:43.727Z,100.00
2022-10-01T01:00:14.305Z,100.00
2022-10-01T01:02:42.788Z,100.00
2022-10-01T01:05:13.651Z,100.00
2022-10-01T01:07:45.307Z,100.00
2022-10-01T01:10:14.890Z,100.00
2022-10-01T01:12:52.474Z,100.00
2022-10-01T01:15:24.602Z,100.00
2022-10-01T01:17:56.991Z,100.00
2022-10-01T01:20:40.918Z,100.00
2022-10-01T01:23:27.212Z,100.00
2022-10-01T01:26:00.861Z,100.00
2022-10-01T01:28:33.379Z,100.00
2022-10-01T01:31:05.101Z,100.00
2022-10-01T01:33:34.357Z,100.00
2022-10-01T01:36:05.645Z,100.00
2022-10-01T01:38:37.544Z,100.00
2022-10-01T01:41:07.165Z,100.00
2022-10-01T01:43:40.717Z,100.00
2022-10-01T01:46:11.246Z,100.00
2022-10-01T01:48:39.837Z,100.00
2022-10-01T01:51:11.933Z,100.00
2022-10-01T01:53:40.407Z,100.00
2022-10-01T01:56:09.737Z,100.00
2022-10-01T01:58:39.856Z,100.00
2022-10-01T02:01:09.156Z,100.00
2022-10-01T02:03:37.662Z,100.00
2022-10-01T02:06:13.544Z,100.00
2022-10-01T02:08:46.557Z,100.00
2022-10-01T02:11:22.834Z,100.00
2022-10-01T02:14:01.138Z,100.00
2022-10-01T02:16:34.091Z,100.00
2022-10-01T02:19:07.181Z,100.00
2022-10-01T02:21:39.926Z,100.00
2022-10-01T02:24:14.492Z,100.00
2022-10-01T02:26:43.815Z,100.00
2022-10-01T02:29:16.198Z,100.00
2022-10-01T02:31:46.538Z,100.00
2022-10-01T02:34:19.414Z,100.00
2022-10-01T02:36:49.469Z,100.00
2022-10-01T02:39:18.847Z,100.00
2022-10-01T02:41:49.373Z,100.00
2022-10-01T02:44:22.908Z,100.00
2022-10-01T02:46:55.026Z,100.00
2022-10-01T02:49:26.368Z,100.00
2022-10-01T02:52:00.767Z,100.00
2022-10-01T02:54:32.514Z,100.00
2022-10-01T02:57:18.482Z,100.00
2022-10-01T02:59:48.929Z,100.00
2022-10-01T03:02:17.488Z,100.00
2022-10-01T03:04:48.023Z,100.00
2022-10-01T03:07:16.874Z,100.00
2022-10-01T03:09:45.425Z,100.00
2022-10-01T03:12:13.723Z,100.00
2022-10-01T03:14:42.078Z,100.00
2022-10-01T03:17:12.260Z,100.00
2022-10-01T03:19:40.720Z,100.00
2022-10-01T03:22:09.116Z,100.00
2022-10-01T03:24:37.539Z,100.00
2022-10-01T03:27:06.666Z,100.00
2022-10-01T03:29:35.028Z,100.00
2022-10-01T03:32:03.360Z,100.00
2022-10-01T03:34:33.083Z,100.00
2022-10-01T03:37:01.435Z,100.00
2022-10-01T03:39:29.761Z,100.00
2022-10-01T03:41:58.245Z,100.00
2022-10-01T03:44:28.080Z,100.00
2022-10-01T03:46:56.689Z,100.00
2022-10-01T03:49:25.196Z,100.00
2022-10-01T03:51:55.017Z,100.00
2022-10-01T03:54:23.389Z,100.00
2022-10-01T03:56:52.315Z,100.00
2022-10-01T03:59:21.286Z,100.00
2022-10-01T04:01:49.728Z,100.00
2022-10-01T04:04:18.182Z,100.00
2022-10-01T04:06:46.524Z,100.00
2022-10-01T04:09:16.634Z,100.00
2022-10-01T04:11:45.106Z,100.00
2022-10-01T04:14:13.418Z,100.00
2022-10-01T04:16:41.774Z,100.00
2022-10-01T04:19:10.063Z,100.00
2022-10-01T04:21:39.148Z,100.00
2022-10-01T04:24:07.789Z,100.00
2022-10-01T04:26:37.573Z,100.00
2022-10-01T04:29:05.881Z,100.00
2022-10-01T04:31:35.478Z,100.00
2022-10-01T04:34:04.837Z,100.00
2022-10-01T04:36:33.134Z,100.00
2022-10-01T04:39:02.832Z,100.00
2022-10-01T04:41:32.008Z,100.00
2022-10-01T04:44:02.037Z,100.00
2022-10-01T04:46:30.924Z,100.00
2022-10-01T04:48:59.380Z,100.00
2022-10-01T04:51:27.677Z,100.00
2022-10-01T04:53:55.986Z,100.00
2022-10-01T04:56:24.279Z,100.00
2022-10-01T04:58:52.569Z,100.00
2022-10-01T05:01:22.361Z,100.00
2022-10-01T05:03:50.643Z,100.00
2022-10-01T05:06:18.980Z,100.00
2022-10-01T05:08:55.275Z,100.00
2022-10-01T05:11:23.530Z,100.00
2022-10-01T05:13:51.727Z,100.00
2022-10-01T05:16:20.026Z,100.00
2022-10-01T05:18:48.460Z,100.00
2022-10-01T05:21:16.848Z,100.00
2022-10-01T05:23:45.136Z,100.00
2022-10-01T05:26:14.787Z,100.00
2022-10-01T05:28:44.679Z,100.00
2022-10-01T05:31:13.994Z,100.00
2022-10-01T05:33:42.588Z,100.00
2022-10-01T05:36:10.888Z,100.00
2022-10-01T05:38:39.105Z,100.00
2022-10-01T05:41:07.517Z,100.00
2022-10-01T05:43:37.158Z,100.00
2022-10-01T05:46:06.421Z,100.00
2022-10-01T05:48:37.004Z,100.00
2022-10-01T05:51:06.682Z,100.00
2022-10-01T05:53:36.832Z,100.00
2022-10-01T05:56:05.244Z,100.00
2022-10-01T05:58:33.652Z,100.00
2022-10-01T06:01:04.085Z,100.00
2022-10-01T06:03:32.464Z,100.00
2022-10-01T06:06:00.804Z,100.00
2022-10-01T06:08:29.060Z,100.00
2022-10-01T06:11:00.726Z,100.00
2022-10-01T06:13:29.294Z,100.00
2022-10-01T06:15:57.702Z,100.00
2022-10-01T06:18:27.487Z,100.00
2022-10-01T06:20:55.729Z,100.00
2022-10-01T06:23:23.967Z,100.00
2022-10-01T06:25:52.206Z,100.00
2022-10-01T06:28:20.457Z,100.00
2022-10-01T06:30:49.749Z,100.00
2022-10-01T06:33:18.742Z,100.00
2022-10-01T06:35:49.802Z,100.00
2022-10-01T06:38:19.952Z,100.00
2022-10-01T06:40:53.153Z,100.00
2022-10-01T06:43:21.604Z,100.00
2022-10-01T06:45:49.953Z,100.00
2022-10-01T06:48:19.979Z,100.00
2022-10-01T06:50:52.236Z,100.00
2022-10-01T06:53:20.618Z,100.00
2022-10-01T06:55:49.906Z,100.00
2022-10-01T06:58:20.382Z,100.00
2022-10-01T07:00:49.327Z,100.00
2022-10-01T07:03:19.320Z,100.00
2022-10-01T07:05:49.358Z,100.00
2022-10-01T07:08:18.182Z,100.00
2022-10-01T07:10:46.551Z,100.00
2022-10-01T07:13:16.572Z,100.00
2022-10-01T07:15:45.368Z,100.00
2022-10-01T07:18:14.326Z,100.00
2022-10-01T07:20:42.825Z,100.00
2022-10-01T07:23:14.365Z,100.00
2022-10-01T07:25:43.438Z,100.00
2022-10-01T07:28:18.143Z,100.00
2022-10-01T07:30:48.485Z,100.00
2022-10-01T07:33:19.112Z,100.00
2022-10-01T07:35:47.913Z,100.00
2022-10-01T07:38:17.510Z,100.00
2022-10-01T07:40:45.911Z,100.00
2022-10-01T07:43:14.515Z,100.00
2022-10-01T07:45:42.996Z,100.00
2022-10-01T07:48:11.362Z,100.00
2022-10-01T07:50:39.657Z,100.00
2022-10-01T07:53:07.990Z,100.00
2022-10-01T07:55:37.814Z,100.00
2022-10-01T07:58:06.370Z,100.00
2022-10-01T08:00:35.229Z,100.00
2022-10-01T08:03:03.472Z,100.00
2022-10-01T08:05:33.870Z,100.00
2022-10-01T08:08:03.465Z,100.00
2022-10-01T08:10:32.364Z,100.00
2022-10-01T08:13:04.741Z,100.00
2022-10-01T08:15:32.931Z,100.00
2022-10-01T08:18:02.267Z,100.00
2022-10-01T08:20:30.561Z,100.00
2022-10-01T08:23:03.010Z,100.00
2022-10-01T08:25:31.366Z,100.00
2022-10-01T08:28:00.399Z,100.00
2022-10-01T08:30:30.147Z,99.86
2022-10-01T08:32:58.876Z,100.00
2022-10-01T08:35:28.451Z,91.08
2022-10-01T08:37:57.212Z,98.17
2022-10-01T08:40:25.665Z,95.98
2022-10-01T08:42:59.498Z,100.00
2022-10-01T08:45:33.331Z,87.37
2022-10-01T08:48:06.413Z,88.32
2022-10-01T08:50:42.772Z,99.81
2022-10-01T08:53:16.767Z,88.48
2022-10-01T08:55:45.435Z,95.80
2022-10-01T08:58:19.231Z,89.01
2022-10-01T09:00:49.487Z,88.19
2022-10-01T09:03:18.952Z,91.45
2022-10-01T09:06:00.337Z,89.53
2022-10-01T09:08:44.799Z,93.47
2022-10-01T09:11:23.875Z,88.79
2022-10-01T09:14:03.273Z,97.45
2022-10-01T09:16:37.044Z,93.19
2022-10-01T09:19:14.083Z,88.65
2022-10-01T09:21:50.606Z,90.17
2022-10-01T09:24:27.086Z,94.27
2022-10-01T09:26:55.263Z,92.20
2022-10-01T09:29:26.061Z,95.57
2022-10-01T09:31:56.172Z,84.40
2022-10-01T09:34:29.957Z,94.94
2022-10-01T09:37:05.623Z,86.31
2022-10-01T09:39:39.199Z,83.60
2022-10-01T09:42:07.528Z,90.11
2022-10-01T09:44:36.352Z,82.79
2022-10-01T09:47:15.874Z,88.87
2022-10-01T09:49:45.616Z,87.23
2022-10-01T09:52:16.219Z,100.00
2022-10-01T09:54:44.560Z,100.00
2022-10-01T09:57:15.192Z,97.99
2022-10-01T09:59:48.490Z,100.00
2022-10-01T10:02:26.086Z,100.00
2022-10-01T10:05:02.538Z,100.00
2022-10-01T10:07:32.382Z,100.00
2022-10-01T10:10:09.874Z,100.00
2022-10-01T10:12:38.122Z,100.00
2022-10-01T10:15:11.461Z,100.00
2022-10-01T10:17:43.056Z,100.00
2022-10-01T10:20:15.062Z,100.00
2022-10-01T10:22:43.417Z,100.00
2022-10-01T10:25:18.246Z,100.00
2022-10-01T10:27:55.017Z,100.00
2022-10-01T10:30:25.356Z,100.00
2022-10-01T10:33:03.599Z,100.00
2022-10-01T10:35:32.142Z,100.00
2022-10-01T10:38:02.328Z,100.00
2022-10-01T10:40:35.648Z,100.00
2022-10-01T10:43:03.977Z,100.00
2022-10-01T10:45:34.088Z,100.00
2022-10-01T10:48:05.696Z,100.00
2022-10-01T10:50:36.571Z,100.00
2022-10-01T10:53:22.054Z,100.00
2022-10-01T10:55:58.296Z,100.00
2022-10-01T10:58:28.073Z,100.00
2022-10-01T11:00:58.833Z,100.00
2022-10-01T11:03:30.230Z,100.00
2022-10-01T11:06:02.554Z,100.00
2022-10-01T11:08:30.867Z,100.00
2022-10-01T11:11:10.144Z,100.00
2022-10-01T11:13:58.462Z,100.00
2022-10-01T11:16:36.402Z,100.00
2022-10-01T11:19:19.319Z,100.00
2022-10-01T11:22:02.183Z,100.00
2022-10-01T11:25:01.566Z,100.00
2022-10-01T11:27:36.228Z,100.00
2022-10-01T11:30:09.560Z,100.00
2022-10-01T11:32:40.164Z,100.00
2022-10-01T11:35:23.105Z,100.00
2022-10-01T11:38:01.822Z,100.00
2022-10-01T11:40:36.572Z,100.00
2022-10-01T11:43:11.171Z,100.00
2022-10-01T11:45:43.605Z,100.00
2022-10-01T11:48:15.742Z,100.00
2022-10-01T11:50:45.441Z,100.00
2022-10-01T11:53:20.362Z,100.00
2022-10-01T11:56:12.803Z,100.00
2022-10-01T11:58:54.076Z,100.00
2022-10-01T12:01:28.615Z,100.00
2022-10-01T12:04:03.930Z,100.00
2022-10-01T12:06:34.895Z,100.00
2022-10-01T12:09:09.022Z,100.00
2022-10-01T12:11:41.592Z,100.00
2022-10-01T12:14:12.617Z,100.00
2022-10-01T12:16:46.482Z,100.00
2022-10-01T12:19:17.586Z,100.00
2022-10-01T12:21:50.478Z,100.00
2022-10-01T12:24:22.313Z,100.00
2022-10-01T12:26:58.256Z,100.00
2022-10-01T12:29:29.369Z,100.00
2022-10-01T12:32:03.074Z,100.00
2022-10-01T12:34:39.863Z,100.00
2022-10-01T12:37:14.521Z,100.00
2022-10-01T12:39:58.284Z,100.00
2022-10-01T12:42:42.221Z,100.00
2022-10-01T12:45:21.737Z,100.00
2022-10-01T12:47:56.364Z,100.00
2022-10-01T12:50:35.897Z,100.00
2022-10-01T12:53:18.094Z,100.00
2022-10-01T12:55:56.651Z,100.00
2022-10-01T12:58:52.230Z,100.00
2022-10-01T13:01:30.941Z,100.00
2022-10-01T13:04:09.051Z,100.00
2022-10-01T13:06:43.837Z,100.00
2022-10-01T13:09:17.896Z,100.00
2022-10-01T13:12:01.203Z,100.00
2022-10-01T13:14:29.577Z,100.00
2022-10-01T13:17:04.065Z,100.00
2022-10-01T13:19:37.234Z,100.00
2022-10-01T13:22:14.816Z,100.00
2022-10-01T13:24:48.958Z,100.00
2022-10-01T13:27:23.180Z,100.00
2022-10-01T13:29:57.223Z,100.00
2022-10-01T13:32:28.517Z,100.00
2022-10-01T13:34:57.282Z,100.00
2022-10-01T13:37:37.666Z,100.00
2022-10-01T13:40:21.388Z,100.00
2022-10-01T13:42:51.746Z,100.00
2022-10-01T13:45:28.025Z,100.00
2022-10-01T13:48:07.823Z,100.00
2022-10-01T13:50:36.256Z,100.00
2022-10-01T13:53:09.576Z,100.00
2022-10-01T13:55:42.901Z,100.00
2022-10-01T13:58:25.382Z,100.00
2022-10-01T14:00:56.353Z,100.00
2022-10-01T14:03:33.602Z,100.00
2022-10-01T14:06:04.145Z,100.00
2022-10-01T14:08:35.619Z,100.00
2022-10-01T14:11:23.476Z,100.00
2022-10-01T14:14:11.200Z,100.00
2022-10-01T14:16:41.843Z,100.00
2022-10-01T14:19:10.018Z,100.00
2022-10-01T14:21:50.479Z,100.00
2022-10-01T14:24:26.313Z,100.00
2022-10-01T14:26:56.744Z,100.00
2022-10-01T14:29:38.910Z,100.00
2022-10-01T14:32:20.943Z,100.00
2022-10-01T14:34:58.246Z,100.00
2022-10-01T14:37:27.423Z,100.00
2022-10-01T14:40:02.986Z,100.00
2022-10-01T14:42:31.825Z,100.00
2022-10-01T14:45:01.396Z,100.00
2022-10-01T14:47:35.555Z,100.00
2022-10-01T14:50:11.097Z,100.00
2022-10-01T14:52:41.398Z,100.00
2022-10-01T14:55:14.031Z,100.00
2022-10-01T14:57:44.585Z,100.00
2022-10-01T15:00:17.116Z,100.00
2022-10-01T15:02:47.271Z,100.00
2022-10-01T15:05:23.638Z,100.00
2022-10-01T15:07:52.040Z,100.00
2022-10-01T15:10:23.881Z,100.00
2022-10-01T15:12:53.116Z,100.00
2022-10-01T15:15:25.642Z,100.00
2022-10-01T15:17:54.086Z,100.00
2022-10-01T15:20:22.393Z,100.00
2022-10-01T15:22:59.003Z,100.00
2022-10-01T15:25:30.775Z,100.00
2022-10-01T15:27:59.207Z,100.00
2022-10-01T15:30:29.143Z,100.00
2022-10-01T15:32:57.817Z,100.00
2022-10-01T15:35:26.386Z,100.00
2022-10-01T15:37:55.349Z,100.00
2022-10-01T15:40:28.886Z,100.00
2022-10-01T15:43:21.282Z,100.00
2022-10-01T15:46:28.862Z,100.00
2022-10-01T15:49:16.222Z,100.00
2022-10-01T15:52:12.152Z,100.00
2022-10-01T15:54:41.844Z,100.00
2022-10-01T15:57:11.083Z,100.00
2022-10-01T15:59:41.059Z,100.00
2022-10-01T16:02:18.642Z,100.00
2022-10-01T16:04:47.448Z,100.00
2022-10-01T16:07:21.104Z,100.00
2022-10-01T16:09:53.632Z,100.00
2022-10-01T16:12:23.304Z,100.00
2022-10-01T16:14:59.226Z,100.00
2022-10-01T16:17:35.934Z,100.00
2022-10-01T16:20:33.757Z,100.00
2022-10-01T16:23:35.550Z,100.00
2022-10-01T16:26:05.082Z,100.00
2022-10-01T16:28:34.756Z,100.00
2022-10-01T16:31:05.680Z,100.00
2022-10-01T16:33:35.339Z,100.00
2022-10-01T16:36:15.231Z,100.00
2022-10-01T16:38:43.442Z,100.00
2022-10-01T16:41:11.775Z,100.00
2022-10-01T16:43:40.083Z,100.00
2022-10-01T16:46:08.300Z,100.00
2022-10-01T16:48:37.898Z,100.00
2022-10-01T16:51:06.349Z,100.00
2022-10-01T16:53:34.608Z,100.00
2022-10-01T16:56:03.218Z,100.00
2022-10-01T16:58:32.303Z,100.00
2022-10-01T17:01:06.582Z,100.00
2022-10-01T17:03:35.190Z,100.00
2022-10-01T17:06:05.051Z,100.00
2022-10-01T17:08:33.405Z,100.00
2022-10-01T17:11:02.326Z,100.00
2022-10-01T17:13:34.008Z,100.00
2022-10-01T17:16:05.010Z,100.00
2022-10-01T17:18:33.738Z,100.00
2022-10-01T17:21:05.541Z,100.00
2022-10-01T17:23:34.927Z,100.00
2022-10-01T17:26:05.746Z,100.00
2022-10-01T17:28:34.102Z,100.00
2022-10-01T17:31:06.656Z,100.00
2022-10-01T17:33:35.252Z,100.00
2022-10-01T17:36:09.114Z,100.00
2022-10-01T17:38:37.642Z,100.00
2022-10-01T17:41:05.971Z,100.00
2022-10-01T17:43:34.208Z,100.00
2022-10-01T17:46:02.813Z,100.00
2022-10-01T17:48:31.172Z,100.00
2022-10-01T17:51:01.007Z,100.00
2022-10-01T17:53:35.959Z,100.00
2022-10-01T17:56:07.757Z,100.00
2022-10-01T17:58:36.243Z,100.00
2022-10-01T18:01:09.030Z,100.00
2022-10-01T18:03:37.291Z,100.00
2022-10-01T18:06:05.882Z,100.00
2022-10-01T18:08:54.253Z,100.00
2022-10-01T18:11:24.496Z,100.00
2022-10-01T18:13:53.007Z,100.00
2022-10-01T18:16:21.771Z,100.00
2022-10-01T18:21:43.564Z,100.00
2022-10-01T18:24:13.163Z,100.00
2022-10-01T18:26:41.368Z,100.00
2022-10-01T18:29:09.878Z,100.00
2022-10-01T18:31:40.634Z,100.00
2022-10-01T18:34:17.372Z,100.00
2022-10-01T18:36:54.875Z,100.00
2022-10-01T18:39:29.467Z,100.00
2022-10-01T18:41:57.966Z,100.00
2022-10-01T18:44:27.044Z,100.00
2022-10-01T18:47:04.713Z,100.00
2022-10-01T18:49:54.883Z,100.00
2022-10-01T18:52:30.502Z,100.00
2022-10-01T18:55:34.497Z,100.00
2022-10-01T18:58:15.401Z,100.00
2022-10-01T19:00:49.319Z,100.00
2022-10-01T19:03:27.132Z,100.00
2022-10-01T19:06:13.247Z,100.00
2022-10-01T19:08:50.283Z,100.00
2022-10-01T19:11:23.121Z,100.00
2022-10-01T19:13:57.961Z,100.00
2022-10-01T19:16:37.388Z,100.00
2022-10-01T19:19:21.752Z,100.00
2022-10-01T19:21:54.406Z,100.00
2022-10-01T19:24:33.490Z,100.00
2022-10-01T19:27:05.939Z,100.00
2022-10-01T19:29:44.884Z,100.00
2022-10-01T19:32:16.515Z,100.00
2022-10-01T19:34:48.157Z,100.00
2022-10-01T19:37:21.102Z,100.00
2022-10-01T19:39:51.550Z,100.00
2022-10-01T19:42:22.048Z,100.00
2022-10-01T19:44:55.751Z,100.00
2022-10-01T19:47:32.003Z,100.00
2022-10-01T19:50:06.432Z,100.00
2022-10-01T19:52:38.292Z,100.00
2022-10-01T19:55:14.542Z,100.00
2022-10-01T19:57:44.411Z,100.00
2022-10-01T20:00:19.475Z,100.00
2022-10-01T20:02:52.537Z,100.00
2022-10-01T20:05:26.017Z,100.00
2022-10-01T20:08:00.863Z,100.00
2022-10-01T20:10:34.883Z,100.00
2022-10-01T20:13:14.220Z,100.00
2022-10-01T20:15:48.138Z,100.00
2022-10-01T20:18:27.808Z,100.00
2022-10-01T20:21:07.218Z,100.00
2022-10-01T20:23:44.589Z,100.00
2022-10-01T20:26:19.947Z,100.00
2022-10-01T20:28:58.362Z,100.00
2022-10-01T20:31:31.199Z,100.00
2022-10-01T20:34:03.763Z,100.00
2022-10-01T20:36:38.080Z,100.00
2022-10-01T20:39:13.754Z,100.00
2022-10-01T20:41:45.712Z,100.00
2022-10-01T20:44:16.853Z,100.00
2022-10-01T20:46:48.542Z,100.00
2022-10-01T20:49:27.257Z,100.00
2022-10-01T20:52:00.470Z,100.00
2022-10-01T20:54:33.619Z,100.00
2022-10-01T20:57:06.951Z,100.00
2022-10-01T20:59:38.766Z,100.00
2022-10-01T21:02:24.988Z,100.00
2022-10-01T21:04:56.414Z,100.00
2022-10-01T21:07:36.550Z,100.00
2022-10-01T21:10:11.505Z,100.00
2022-10-01T21:12:43.253Z,100.00
2022-10-01T21:15:13.975Z,100.00
2022-10-01T21:17:48.168Z,100.00
2022-10-01T21:20:26.774Z,100.00
2022-10-01T21:23:05.702Z,100.00
2022-10-01T21:25:42.834Z,100.00
2022-10-01T21:28:22.588Z,100.00
2022-10-01T21:31:00.729Z,100.00
2022-10-01T21:33:34.027Z,100.00
2022-10-01T21:36:06.662Z,100.00
2022-10-01T21:38:41.097Z,100.00
2022-10-01T21:41:29.429Z,100.00
2022-10-01T21:44:14.907Z,100.00
2022-10-01T21:46:48.426Z,100.00
2022-10-01T21:49:26.910Z,100.00
2022-10-01T21:52:03.021Z,100.00
2022-10-01T21:54:53.643Z,100.00
2022-10-01T21:57:36.595Z,100.00
2022-10-01T22:00:17.897Z,100.00
2022-10-01T22:02:58.161Z,100.00
2022-10-01T22:05:35.852Z,100.00
2022-10-01T22:08:11.493Z,100.00
2022-10-01T22:10:42.365Z,100.00
2022-10-01T22:13:16.070Z,100.00
2022-10-01T22:15:45.770Z,100.00
2022-10-01T22:18:19.597Z,100.00
2022-10-01T22:20:49.778Z,100.00
2022-10-01T22:23:19.622Z,100.00
2022-10-01T22:25:52.792Z,100.00
2022-10-01T22:28:24.904Z,100.00
2022-10-01T22:30:55.215Z,100.00
2022-10-01T22:33:27.614Z,100.00
2022-10-01T22:36:02.247Z,100.00
2022-10-01T22:38:34.990Z,100.00
2022-10-01T22:41:08.298Z,100.00
2022-10-01T22:43:37.362Z,100.00
2022-10-01T22:46:17.848Z,100.00
2022-10-01T22:48:53.191Z,100.00
2022-10-01T22:51:33.651Z,100.00
2022-10-01T22:54:17.550Z,100.00
2022-10-01T22:56:52.110Z,100.00
2022-10-01T22:59:26.209Z,100.00
2022-10-01T23:02:01.697Z,100.00
2022-10-01T23:04:37.131Z,100.00
2022-10-01T23:07:14.975Z,100.00
2022-10-01T23:09:47.970Z,100.00
2022-10-01T23:12:23.676Z,100.00
2022-10-01T23:14:58.902Z,100.00
2022-10-01T23:17:29.761Z,100.00
2022-10-01T23:20:10.779Z,100.00
2022-10-01T23:22:53.939Z,100.00
2022-10-01T23:25:29.531Z,100.00
2022-10-01T23:28:09.716Z,100.00
2022-10-01T23:30:50.193Z,100.00
2022-10-01T23:33:28.718Z,100.00
2022-10-01T23:36:06.214Z,100.00
2022-10-01T23:38:47.085Z,100.00
2022-10-01T23:41:18.813Z,100.00
2022-10-01T23:43:49.449Z,100.00
2022-10-01T23:46:19.256Z,100.00
2022-10-01T23:48:50.425Z,100.00
2022-10-01T23:51:23.069Z,100.00
2022-10-01T23:53:58.445Z,100.00
2022-10-01T23:56:46.675Z,100.00
2022-10-01T23:59:19.446Z,100.00
